Merritt Island, Florida
Current Conditions -  °F | °C
As of 2:45 AM on Wednesday 26 Nov 2014 (Local Time) from KCOF Reporting Station
Thunderstorm Thunderstorm  
Wind Chill: 73°   Ceiling: 1300
Heat Index: 73°   Visibility: 4mi
Dew Point: 72°   Wind: 10mph
Humidity: 94%   Direction: 200°SSW
Pressure: 29.89"   Gusts: 18mph
Location:  28.36°N, 80.68°W
Report Text: KCOF 260745Z AUTO 20009G16KT 4SM R20/4500FT -TSRA BR BKN013 23/22 A2989 RMK AO2 LTG DSNT N AND SE AND SW RAB0724 TSB0730
Loading
Personal Weather Stations






























Interactive Weather Map New forecast layout! Learn more

10-Day Weather Forecast

Advertisements
Track Severe Weather on mobile